createdAt,value
2019-03-20T00:01:51.096Z,5.80
2019-03-20T00:04:21.444Z,5.30
2019-03-20T00:07:10.826Z,5.23
2019-03-20T00:10:00.108Z,5.00
2019-03-20T00:12:49.574Z,5.33
2019-03-20T00:15:38.929Z,4.70
2019-03-20T00:18:28.357Z,4.83
2019-03-20T00:21:17.861Z,4.53
2019-03-20T00:23:48.765Z,4.63
2019-03-20T00:26:38.139Z,4.77
2019-03-20T00:29:27.513Z,4.53
2019-03-20T00:32:16.893Z,4.60
2019-03-20T00:35:06.404Z,4.27
2019-03-20T00:37:55.929Z,4.13
2019-03-20T00:40:45.308Z,4.20
2019-03-20T00:43:34.796Z,4.27
2019-03-20T00:48:48.522Z,4.03
2019-03-20T00:51:37.897Z,4.40
2019-03-20T00:54:08.252Z,4.33
2019-03-20T00:56:57.631Z,4.27
2019-03-20T00:59:47.106Z,4.03
2019-03-20T01:02:36.589Z,4.50
2019-03-20T01:05:25.998Z,4.60
2019-03-20T01:08:15.388Z,4.47
2019-03-20T01:10:45.729Z,4.30
2019-03-20T01:13:35.085Z,4.63
2019-03-20T01:16:24.501Z,4.30
2019-03-20T01:19:13.880Z,4.40
2019-03-20T01:22:03.344Z,4.33
2019-03-20T01:24:45.198Z,4.40
2019-03-20T01:27:27.303Z,4.00
2019-03-20T01:30:09.110Z,4.37
2019-03-20T01:32:51.197Z,4.77
2019-03-20T01:38:16.029Z,4.53
2019-03-20T01:43:37.913Z,5.70
2019-03-20T01:49:02.132Z,5.70
2019-03-20T01:51:44.567Z,5.43
2019-03-20T01:54:26.590Z,5.40
2019-03-20T01:57:08.728Z,5.37
2019-03-20T01:59:50.596Z,5.70
2019-03-20T02:02:32.497Z,5.57
2019-03-20T02:05:14.820Z,5.70
2019-03-20T02:07:56.721Z,6.53
2019-03-20T02:10:38.749Z,5.33
2019-03-20T02:13:20.969Z,5.23
2019-03-20T02:16:02.675Z,5.40
2019-03-20T02:18:45.033Z,5.33
2019-03-20T02:21:15.331Z,6.30
2019-03-20T02:23:45.660Z,5.67
2019-03-20T02:26:15.993Z,5.20
2019-03-20T02:28:46.300Z,5.80
2019-03-20T02:31:35.660Z,6.00
2019-03-20T02:34:25.122Z,5.53
2019-03-20T02:37:14.411Z,5.83
2019-03-20T02:40:04.459Z,6.07
2019-03-20T02:42:53.834Z,6.10
2019-03-20T02:45:43.230Z,5.87
2019-03-20T02:48:32.592Z,6.13
2019-03-20T02:51:21.987Z,6.07
2019-03-20T02:54:11.338Z,6.27
2019-03-20T02:57:00.767Z,5.53
2019-03-20T02:59:50.122Z,5.70
2019-03-20T03:02:32.323Z,5.97
2019-03-20T03:05:14.675Z,5.33
2019-03-20T03:07:56.429Z,5.57
2019-03-20T03:10:38.339Z,5.63
2019-03-20T03:13:20.610Z,5.87
2019-03-20T03:15:50.937Z,4.43
2019-03-20T03:18:40.347Z,5.33
2019-03-20T03:21:29.763Z,4.87
2019-03-20T03:24:19.147Z,4.50
2019-03-20T03:27:27.935Z,4.43
2019-03-20T03:30:17.453Z,4.93
2019-03-20T03:33:27.871Z,4.80
2019-03-20T03:35:58.054Z,5.17
2019-03-20T03:38:47.475Z,5.00
2019-03-20T03:41:36.853Z,4.40
2019-03-20T03:44:26.275Z,4.73
2019-03-20T03:47:15.549Z,4.73
2019-03-20T03:50:04.338Z,5.30
2019-03-20T03:53:13.016Z,5.63
2019-03-20T03:56:02.425Z,5.30
2019-03-20T03:58:44.426Z,5.30
2019-03-20T04:01:26.316Z,6.23
2019-03-20T04:06:50.778Z,6.07
2019-03-20T04:09:32.261Z,5.80
2019-03-20T04:12:13.770Z,6.33
2019-03-20T04:14:55.972Z,5.83
2019-03-20T04:17:37.866Z,5.93
2019-03-20T04:20:19.660Z,6.33
2019-03-20T04:23:01.594Z,5.87
2019-03-20T04:25:43.188Z,6.60
2019-03-20T04:28:25.556Z,6.17
2019-03-20T04:31:07.183Z,6.87
2019-03-20T04:33:49.239Z,6.80
2019-03-20T04:36:31.415Z,6.50
2019-03-20T04:39:13.214Z,6.90
2019-03-20T04:41:54.865Z,6.90
2019-03-20T04:44:37.074Z,7.20
2019-03-20T04:47:18.918Z,7.10
2019-03-20T04:50:01.453Z,7.60
2019-03-20T04:55:26.183Z,6.20
2019-03-20T04:58:08.208Z,6.67
2019-03-20T05:00:49.981Z,7.17
2019-03-20T05:03:32.509Z,6.67
2019-03-20T05:06:14.565Z,6.10
2019-03-20T05:08:56.997Z,6.10
2019-03-20T05:11:38.619Z,5.93
2019-03-20T05:14:20.245Z,6.20
2019-03-20T05:17:02.488Z,6.27
2019-03-20T05:19:44.222Z,6.43
2019-03-20T05:22:26.089Z,6.90
2019-03-20T05:25:08.039Z,6.37
2019-03-20T05:27:50.106Z,6.30
2019-03-20T05:33:28.870Z,5.70
2019-03-20T05:36:18.261Z,5.50
2019-03-20T05:39:08.070Z,5.97
2019-03-20T05:41:50.490Z,6.47
2019-03-20T05:44:32.547Z,6.97
2019-03-20T05:47:14.657Z,7.03
2019-03-20T05:49:56.881Z,6.43
2019-03-20T05:52:38.827Z,6.83
2019-03-20T05:55:20.376Z,6.77
2019-03-20T05:58:02.271Z,6.70
2019-03-20T06:03:26.456Z,6.90
2019-03-20T06:06:08.474Z,7.53
2019-03-20T06:12:23.203Z,6.07
2019-03-20T06:15:04.941Z,5.50
2019-03-20T06:17:47.218Z,5.93
2019-03-20T06:23:11.872Z,5.73
2019-03-20T06:25:42.242Z,6.33
2019-03-20T06:28:31.611Z,6.03
2019-03-20T06:31:21.026Z,5.50
2019-03-20T06:34:10.326Z,6.73
2019-03-20T06:36:59.747Z,7.00
2019-03-20T06:39:49.168Z,7.17
2019-03-20T06:42:31.199Z,6.60
2019-03-20T06:45:12.849Z,6.70
2019-03-20T06:47:54.655Z,8.20
2019-03-20T06:53:18.817Z,7.17
2019-03-20T06:56:00.799Z,7.23
2019-03-20T06:58:31.118Z,6.93
2019-03-20T07:05:18.679Z,7.90
2019-03-20T07:08:07.986Z,7.47
2019-03-20T07:11:17.559Z,6.53
2019-03-20T07:14:07.015Z,7.00
2019-03-20T07:16:56.399Z,7.87
2019-03-20T07:19:45.783Z,7.03
2019-03-20T07:22:35.184Z,7.90
2019-03-20T07:25:24.623Z,7.53
2019-03-20T07:28:14.075Z,7.63
2019-03-20T07:31:14.286Z,7.30
2019-03-20T07:33:54.520Z,6.63
2019-03-20T07:36:25.283Z,7.37
2019-03-20T07:39:34.164Z,9.07
2019-03-20T07:42:35.526Z,7.30
2019-03-20T07:45:17.722Z,8.20
2019-03-20T07:48:00.490Z,8.03
2019-03-20T07:50:42.081Z,7.40
2019-03-20T07:53:24.228Z,7.30
2019-03-20T07:58:48.287Z,7.80
2019-03-20T08:04:12.659Z,7.17
2019-03-20T08:06:42.845Z,8.27
2019-03-20T08:09:32.614Z,7.80
2019-03-20T08:12:03.004Z,8.10
2019-03-20T08:14:52.376Z,7.43
2019-03-20T08:17:41.752Z,8.07
2019-03-20T08:20:23.482Z,8.23
2019-03-20T08:23:05.955Z,7.80
2019-03-20T08:25:48.067Z,7.93
2019-03-20T08:28:29.730Z,7.67
2019-03-20T08:31:11.886Z,7.73
2019-03-20T08:33:42.272Z,8.30
2019-03-20T08:36:12.586Z,8.27
2019-03-20T08:39:01.955Z,8.17
2019-03-20T08:41:51.356Z,8.33
2019-03-20T08:44:21.734Z,7.67
2019-03-20T08:47:11.164Z,8.10
2019-03-20T08:50:00.629Z,7.30
2019-03-20T08:52:49.991Z,6.80
2019-03-20T08:55:20.468Z,6.93
2019-03-20T08:58:09.864Z,6.20
2019-03-20T09:00:59.336Z,6.77
2019-03-20T09:03:48.777Z,6.20
2019-03-20T09:06:19.223Z,5.87
2019-03-20T09:09:08.636Z,5.33
2019-03-20T09:11:58.038Z,5.33
2019-03-20T09:14:47.447Z,5.80
2019-03-20T09:17:36.902Z,5.57
2019-03-20T09:20:26.334Z,5.27
2019-03-20T09:23:15.738Z,5.17
2019-03-20T09:29:04.541Z,5.17
2019-03-20T09:31:53.955Z,3.47
2019-03-20T09:34:43.381Z,4.60
2019-03-20T09:37:52.829Z,3.53
2019-03-20T09:40:43.670Z,3.47
2019-03-20T09:43:52.508Z,3.00
2019-03-20T09:46:41.941Z,3.57
2019-03-20T09:49:31.356Z,3.73
2019-03-20T09:52:20.730Z,2.77
2019-03-20T09:55:10.274Z,2.80
2019-03-20T09:57:59.666Z,3.53
2019-03-20T10:00:49.120Z,3.37
2019-03-20T10:03:38.613Z,3.87
2019-03-20T10:06:30.170Z,3.47
2019-03-20T10:09:38.627Z,3.17
2019-03-20T10:12:28.102Z,3.40
2019-03-20T10:15:18.018Z,2.70
2019-03-20T10:21:15.839Z,3.27
2019-03-20T10:24:05.198Z,3.17
2019-03-20T10:26:54.584Z,3.30
2019-03-20T10:29:24.923Z,3.10
2019-03-20T10:32:14.489Z,4.43
2019-03-20T10:35:04.009Z,4.03
2019-03-20T10:37:34.299Z,3.60
2019-03-20T10:40:25.172Z,3.60
2019-03-20T10:43:14.592Z,3.37
2019-03-20T10:45:44.891Z,3.80
2019-03-20T10:48:15.218Z,3.00
2019-03-20T10:51:04.575Z,2.90
2019-03-20T10:53:34.790Z,3.20
2019-03-20T10:56:24.188Z,2.80
2019-03-20T10:59:13.665Z,3.37
2019-03-20T11:01:56.067Z,3.60
2019-03-20T11:04:38.063Z,2.80
2019-03-20T11:07:20.043Z,2.20
2019-03-20T11:10:02.447Z,1.80
2019-03-20T11:15:28.567Z,2.33
2019-03-20T11:17:58.806Z,2.37
2019-03-20T11:20:48.300Z,2.50
2019-03-20T11:23:18.734Z,1.93
2019-03-20T11:25:49.928Z,4.70
2019-03-20T11:28:20.287Z,2.90
2019-03-20T11:30:50.530Z,2.07
2019-03-20T11:33:39.886Z,1.87
2019-03-20T11:36:10.202Z,1.87
2019-03-20T11:38:59.592Z,2.03
2019-03-20T11:41:49.066Z,1.70
2019-03-20T11:44:38.457Z,2.07
2019-03-20T11:47:09.681Z,1.97
2019-03-20T11:49:59.073Z,2.33
2019-03-20T11:52:48.535Z,2.20
2019-03-20T11:55:37.935Z,1.93
2019-03-20T11:58:27.333Z,2.00
2019-03-20T12:01:09.800Z,2.37
2019-03-20T12:03:51.870Z,2.40
2019-03-20T12:06:33.734Z,2.73
2019-03-20T12:11:58.662Z,2.70
2019-03-20T12:14:40.439Z,2.53
2019-03-20T12:17:22.623Z,2.23
2019-03-20T12:20:04.459Z,2.60
2019-03-20T12:22:46.383Z,2.40
2019-03-20T12:25:28.339Z,2.50
2019-03-20T12:28:10.226Z,3.20
2019-03-20T12:30:52.229Z,3.03
2019-03-20T12:33:34.454Z,2.77
2019-03-20T12:36:16.376Z,2.30
2019-03-20T12:38:58.472Z,2.17
2019-03-20T12:41:40.091Z,2.80
2019-03-20T12:44:21.811Z,2.80
2019-03-20T12:47:03.540Z,2.73
2019-03-20T12:49:45.349Z,2.10
2019-03-20T12:55:09.786Z,3.50
2019-03-20T12:57:52.091Z,2.93
2019-03-20T13:00:33.890Z,2.83
2019-03-20T13:03:15.599Z,2.53
2019-03-20T13:05:57.910Z,3.70
2019-03-20T13:08:39.745Z,2.53
2019-03-20T13:11:22.082Z,2.10
2019-03-20T13:14:04.220Z,1.90
2019-03-20T13:16:34.610Z,2.17
2019-03-20T13:19:24.041Z,1.90
2019-03-20T13:22:13.397Z,2.03
2019-03-20T13:25:02.795Z,2.13
2019-03-20T13:27:52.207Z,2.23
2019-03-20T13:30:43.076Z,2.03
2019-03-20T13:33:32.447Z,2.10
2019-03-20T13:36:21.839Z,2.30
2019-03-20T13:39:11.192Z,2.10
2019-03-20T13:41:41.449Z,2.07
2019-03-20T13:44:30.837Z,2.43
2019-03-20T13:47:20.173Z,3.50
2019-03-20T13:50:10.334Z,2.50
2019-03-20T13:52:59.709Z,2.37
2019-03-20T13:55:49.094Z,2.40
2019-03-20T13:58:19.456Z,1.97
2019-03-20T14:01:08.867Z,2.30
2019-03-20T14:03:58.316Z,2.20
2019-03-20T14:06:47.764Z,2.17
2019-03-20T14:09:37.168Z,2.20
2019-03-20T14:12:26.575Z,2.10
2019-03-20T14:15:28.116Z,2.47
2019-03-20T14:18:10.393Z,2.50
2019-03-20T14:20:52.674Z,2.33
2019-03-20T14:23:34.737Z,2.50
2019-03-20T14:26:16.821Z,1.80
2019-03-20T14:28:58.794Z,2.47
2019-03-20T14:31:29.308Z,2.50
2019-03-20T14:34:18.855Z,3.83
2019-03-20T14:36:49.351Z,3.40
2019-03-20T14:39:19.649Z,3.20
2019-03-20T14:42:09.062Z,2.10
2019-03-20T14:44:58.471Z,2.17
2019-03-20T14:47:47.842Z,1.80
2019-03-20T14:50:37.238Z,1.70
2019-03-20T14:53:26.609Z,2.00
2019-03-20T14:56:18.186Z,2.30
2019-03-20T14:59:26.565Z,2.13
2019-03-20T15:02:15.965Z,1.63
2019-03-20T15:05:05.614Z,1.60
2019-03-20T15:07:55.016Z,2.33
2019-03-20T15:10:46.127Z,1.80
2019-03-20T15:13:54.862Z,2.43
2019-03-20T15:16:36.906Z,2.30
2019-03-20T15:22:15.788Z,2.27
2019-03-20T15:25:05.447Z,2.27
2019-03-20T15:27:54.950Z,2.30
2019-03-20T15:30:44.392Z,2.40
2019-03-20T15:33:33.820Z,2.03
2019-03-20T15:36:23.326Z,2.50
2019-03-20T15:39:12.809Z,2.43
2019-03-20T15:42:02.188Z,2.17
2019-03-20T15:44:51.596Z,2.43
2019-03-20T15:47:40.920Z,2.40
2019-03-20T15:50:23.463Z,2.33
2019-03-20T15:53:05.785Z,2.23
2019-03-20T15:55:49.590Z,2.47
2019-03-20T15:58:31.734Z,2.60
2019-03-20T16:01:13.411Z,2.40
2019-03-20T16:03:55.401Z,2.57
2019-03-20T16:06:25.851Z,2.20
2019-03-20T16:09:15.144Z,2.30
2019-03-20T16:12:04.542Z,2.63
2019-03-20T16:14:53.911Z,2.83
2019-03-20T16:17:43.314Z,2.10
2019-03-20T16:20:32.729Z,2.03
2019-03-20T16:23:22.127Z,2.30
2019-03-20T16:26:11.016Z,3.43
2019-03-20T16:29:00.558Z,3.20
2019-03-20T16:31:49.929Z,3.00
2019-03-20T16:34:39.289Z,2.27
2019-03-20T16:37:28.722Z,3.00
2019-03-20T16:40:18.688Z,2.53
2019-03-20T16:43:08.131Z,5.57
2019-03-20T16:45:57.549Z,3.00
2019-03-20T16:48:46.976Z,3.20
2019-03-20T16:51:36.387Z,3.07
2019-03-20T16:54:25.823Z,2.53
2019-03-20T16:56:56.182Z,2.47
2019-03-20T16:59:45.562Z,2.90
2019-03-20T17:02:34.992Z,3.60
2019-03-20T17:05:24.744Z,2.73
2019-03-20T17:08:14.133Z,2.50
2019-03-20T17:11:03.555Z,2.60
2019-03-20T17:13:52.975Z,2.47
2019-03-20T17:16:42.732Z,2.17
2019-03-20T17:19:52.809Z,3.67
2019-03-20T17:22:42.293Z,2.97
2019-03-20T17:25:31.753Z,2.83
2019-03-20T17:28:21.158Z,2.87
2019-03-20T17:31:10.625Z,5.37
2019-03-20T17:34:00.047Z,4.07
2019-03-20T17:36:48.954Z,5.17
2019-03-20T17:39:38.201Z,4.07
2019-03-20T17:42:27.551Z,3.93
2019-03-20T17:45:17.472Z,3.47
2019-03-20T17:48:07.005Z,3.77
2019-03-20T17:50:37.253Z,3.47
2019-03-20T17:53:07.684Z,3.40
2019-03-20T17:55:57.062Z,2.70
2019-03-20T17:58:46.412Z,2.40
2019-03-20T18:01:35.792Z,2.40
2019-03-20T18:04:25.197Z,3.00
2019-03-20T18:07:14.561Z,3.22
2019-03-20T18:10:04.238Z,3.37
2019-03-20T18:12:53.608Z,2.90
2019-03-20T18:15:43.029Z,3.00
2019-03-20T18:18:34.091Z,4.37
2019-03-20T18:21:23.568Z,3.93
2019-03-20T18:23:53.959Z,4.07
2019-03-20T18:26:24.316Z,4.27
2019-03-20T18:29:13.732Z,4.50
2019-03-20T18:32:03.115Z,5.17
2019-03-20T18:34:33.508Z,4.00
2019-03-20T18:37:03.851Z,3.93
2019-03-20T18:39:34.243Z,3.60
2019-03-20T18:42:24.533Z,3.67
2019-03-20T18:45:14.536Z,4.90
2019-03-20T18:48:04.580Z,5.30
2019-03-20T18:50:46.905Z,5.30
2019-03-20T18:53:29.408Z,4.70
2019-03-20T18:56:11.424Z,4.47
2019-03-20T18:58:53.755Z,4.43
2019-03-20T19:01:36.178Z,4.10
2019-03-20T19:04:18.125Z,3.40
2019-03-20T19:07:00.325Z,3.70
2019-03-20T19:09:42.139Z,3.57
2019-03-20T19:12:12.588Z,3.83
2019-03-20T19:14:43.080Z,5.43
2019-03-20T19:17:32.491Z,5.37
2019-03-20T19:20:22.156Z,4.57
2019-03-20T19:23:11.542Z,4.03
2019-03-20T19:26:20.480Z,4.00
2019-03-20T19:29:29.366Z,4.57
2019-03-20T19:32:18.875Z,3.80
2019-03-20T19:35:08.419Z,4.17
2019-03-20T19:37:57.920Z,4.27
2019-03-20T19:40:47.398Z,3.93
2019-03-20T19:43:36.860Z,3.43
2019-03-20T19:46:26.332Z,3.83
2019-03-20T19:48:56.739Z,3.57
2019-03-20T19:51:46.151Z,3.90
2019-03-20T19:54:36.243Z,4.17
2019-03-20T19:57:25.745Z,3.63
2019-03-20T19:59:56.131Z,2.73
2019-03-20T20:02:45.522Z,2.80
2019-03-20T20:05:16.426Z,4.30
2019-03-20T20:08:06.184Z,2.83
2019-03-20T20:10:36.938Z,3.00
2019-03-20T20:13:26.346Z,2.80
2019-03-20T20:16:15.814Z,3.63
2019-03-20T20:18:46.221Z,2.80
2019-03-20T20:21:35.565Z,3.23
2019-03-20T20:24:24.991Z,3.23
2019-03-20T20:27:14.385Z,2.80
2019-03-20T20:30:04.143Z,2.33
2019-03-20T20:32:53.583Z,2.60
2019-03-20T20:35:42.960Z,2.40
2019-03-20T20:38:32.503Z,2.53
2019-03-20T20:41:22.010Z,2.40
2019-03-20T20:44:11.441Z,3.50
2019-03-20T20:46:41.806Z,3.23
2019-03-20T20:49:23.454Z,3.30
2019-03-20T20:52:05.801Z,3.50
2019-03-20T20:54:48.037Z,3.70
2019-03-20T20:57:18.423Z,3.20
2019-03-20T21:00:10.260Z,3.70
2019-03-20T21:02:59.723Z,3.83
2019-03-20T21:05:30.065Z,4.00
2019-03-20T21:08:19.496Z,4.13
2019-03-20T21:11:08.886Z,3.80
2019-03-20T21:13:39.242Z,3.47
2019-03-20T21:16:29.038Z,3.47
2019-03-20T21:19:37.827Z,3.33
2019-03-20T21:22:47.185Z,3.30
2019-03-20T21:25:37.782Z,3.07
2019-03-20T21:28:46.303Z,3.20
2019-03-20T21:31:38.081Z,3.95
2019-03-20T21:34:35.979Z,3.80
2019-03-20T21:37:47.388Z,3.90
2019-03-20T21:40:19.870Z,5.40
2019-03-20T21:43:28.362Z,8.10
2019-03-20T21:46:22.893Z,9.03
2019-03-20T21:49:13.907Z,9.17
2019-03-20T21:52:05.710Z,6.50
2019-03-20T21:55:14.461Z,5.83
2019-03-20T21:58:22.975Z,5.63
2019-03-20T22:01:31.444Z,5.80
2019-03-20T22:07:33.380Z,5.53
2019-03-20T22:10:30.661Z,5.23
2019-03-20T22:13:58.587Z,5.50
2019-03-20T22:17:26.559Z,4.23
2019-03-20T22:20:35.053Z,6.67
2019-03-20T22:23:46.647Z,5.80
2019-03-20T22:26:55.823Z,5.07
2019-03-20T22:29:45.606Z,5.43
2019-03-20T22:32:54.188Z,5.90
2019-03-20T22:35:48.510Z,5.60
2019-03-20T22:38:56.993Z,5.80
2019-03-20T22:42:05.436Z,5.73
2019-03-20T22:45:13.922Z,5.80
2019-03-20T22:48:22.436Z,5.13
2019-03-20T22:51:04.562Z,5.10
2019-03-20T22:53:46.819Z,5.33
2019-03-20T22:56:28.857Z,5.13
2019-03-20T22:59:10.975Z,4.60
2019-03-20T23:01:53.392Z,4.73
2019-03-20T23:04:35.114Z,5.30
2019-03-20T23:07:19.305Z,4.70
2019-03-20T23:13:41.603Z,4.67
2019-03-20T23:16:18.648Z,4.67
2019-03-20T23:19:03.593Z,5.00
2019-03-20T23:21:48.303Z,4.87
2019-03-20T23:27:12.717Z,5.50
2019-03-20T23:32:38.138Z,5.43
2019-03-20T23:35:19.824Z,5.37
2019-03-20T23:38:02.509Z,5.57
2019-03-20T23:43:27.147Z,4.23
2019-03-20T23:46:09.386Z,4.00
2019-03-20T23:48:51.394Z,3.67
2019-03-20T23:54:16.067Z,4.07
2019-03-20T23:59:40.530Z,4.00
